Tiempo atmosférico en la estación meteorológica de San Pedro Manrique, Soria (1096 m.)



Fecha
DESCASC
Temp. máxima en grados centígrados (hora)
DESCASC
Temp. mínima en grados centígrados (hora)
DESCASC
Temp. media en grados centígrados
DESCASC
Racha de viento máxima en m/sg (hora)
DESCASC
Velocidad máxima media en intervalos de 10 minutos(hora)
DESCASC
Precipitaciones diarias en mm
DESCASC
Precipitaciones de 00:00 a 06:00 en mm
DESCASC
Precipitaciones de 06:00 a 12:00 en mm
DESCASC
Precipitaciones de 12:00 a 18:00 en mm
DESCASC
Precipitaciones de 18:00 a 24:00 en mm
DESCASC
15-08-2019 24.4 (15:30) 9.1 (06:30) 16.8 9.17 (16:30) 5 (18:20) 0 0 0 0 0
14-08-2019 27.2 (18:30) 5.1 (00:00) 16.2 8.89 (20:00) 5.83 (20:00) 0 0 0 0 0
13-08-2019 -- (--) -- (--) -- -- (--) -- (--) -- -- -- -- 0
12-08-2019 -- (--) -- (--) -- -- (--) -- (--) -- 0 0 -- --
11-08-2019 20.9 (12:20) 13.2 (00:00) 17 8.33 (21:20) 5 (13:40) 0.8 0 0.8 0 0
10-08-2019 26.2 (15:40) 8.3 (00:00) 17.3 8.61 (18:50) 5 (18:50) 0.6 0 0 0 0.6
09-08-2019 29.9 (15:10) 17.6 (00:00) 23.8 18.33 (18:40) 8.61 (18:40) 3.2 0 0 0 3.2
08-08-2019 29.7 (16:10) 15 (00:00) 22.4 11.67 (12:30) 6.39 (12:20) 0 0 0 0 0
07-08-2019 25.4 (14:30) 15 (00:00) 20.2 9.72 (17:30) 5.28 (17:50) 0 0 0 0 0
06-08-2019 31.8 (16:10) 11.9 (00:00) 21.8 10.56 (14:50) 5.28 (18:20) 0 0 0 0 0
05-08-2019 28.7 (18:10) 11.9 (00:00) 20.3 8.89 (17:40) 4.72 (17:00) 0 0 0 0 0
04-08-2019 32.7 (17:30) 11.7 (00:00) 22.2 8.61 (15:40) 4.72 (16:50) 0 0 0 0 0
03-08-2019 31.4 (15:00) 9.9 (00:00) 20.6 8.33 (16:50) 4.72 (15:50) 0 0 0 0 0
02-08-2019 27.3 (15:10) 11.7 (00:00) 19.5 7.5 (19:10) 4.17 (19:10) 0 0 0 0 0
01-08-2019 26 (15:00) 12.8 (00:00) 19.4 8.89 (16:30) 5.28 (16:30) 0 0 0 0 0
31-07-2019 24.2 (17:30) 5.1 (00:00) 14.7 7.5 (15:40) 4.72 (15:50) 0 0 0 0 0
30-07-2019 19.5 (17:30) 11.3 (00:00) 15.4 8.89 (20:50) 6.11 (20:50) 0 0 0 0 0
29-07-2019 29 (17:20) 7.3 (00:00) 18.2 11.67 (16:00) 5.56 (13:20) 0 0 0 0 0
28-07-2019 21.8 (15:30) 10 (00:00) 15.9 8.06 (00:50) 5 (00:50) 0 0 0 0 0
27-07-2019 17.4 (15:30) 12 (00:00) 14.7 8.89 (16:10) 5 (13:10) 1.8 0 0 1.8 0
26-07-2019 22.2 (00:00) 14.1 (00:00) 18.2 10.56 (13:30) 6.67 (13:40) 2.6 0.4 1 1 0.2
25-07-2019 33.2 (17:10) 18.4 (00:00) 25.8 11.39 (17:50) 5.83 (17:00) 0 0 0 0 0
24-07-2019 33.6 (17:50) 13.8 (00:00) 23.7 10.83 (15:40) 6.67 (19:40) 0 0 0 0 0
23-07-2019 33.9 (17:10) 14.7 (00:00) 24.3 11.94 (14:40) 5.56 (14:40) 1.2 0 0 0 1.2
22-07-2019 33 (17:10) 14.7 (00:00) 23.8 9.72 (22:10) 5.56 (18:00) 0 0 0 0 0
21-07-2019 29.4 (17:30) 16.4 (00:00) 22.9 16.39 (21:00) 8.61 (21:10) 3.8 0 0 0 3.8
20-07-2019 31.2 (14:40) 13.2 (00:00) 22.2 8.89 (13:10) 5 (10:50) 0 0 0 0 0
19-07-2019 29.1 (15:00) 8.9 (00:00) 19 9.44 (22:40) 4.17 (16:50) 0.2 0 0 0 0.2

Gráficas

Temp. máximas Temp. mínimas Temp. medias Precipitaciones Rachas de viento máximas Velocidades máximas media en intervalos de 10 minutos

Datos horarios

Fecha y hora oficial Temperatura (ºC) Velocidad del viento (km/h) Dirección del viento Racha (km/h) Dirección de racha Precipitación (mm) Presión (hPa) Tendencia (hPa) Humedad (%)
2019-08-17 23:00:00 20.8 3 Sur 6 Este 0 -- -- 53
2019-08-17 22:00:00 24.6 0 Calma 13 Nordeste 0 -- -- 45
2019-08-17 21:00:00 27.4 9 Nordeste 20 Nordeste 0 -- -- 39
2019-08-17 20:00:00 28.7 9 Nordeste 26 Nordeste 0 -- -- 36
2019-08-17 19:00:00 31 9 Nordeste 24 Sudoeste 0 -- -- 33
2019-08-17 18:00:00 33.1 11 Sudoeste 28 Oeste 0 -- -- 20
2019-08-17 17:00:00 32.9 14 Sudoeste 41 Sudoeste 0 -- -- 20
2019-08-17 16:00:00 32.3 9 Sur 29 Sur 0 -- -- 21
2019-08-17 15:00:00 31.8 14 Sur 34 Sudoeste 0 -- -- 24
2019-08-17 14:00:00 30.6 15 Sudoeste 37 Sudoeste 0 -- -- 24
2019-08-17 13:00:00 29.9 17 Sudoeste 32 Sudoeste 0 -- -- 25
2019-08-17 12:00:00 28.6 14 Sudoeste 27 Sudoeste 0 -- -- 30
2019-08-17 11:00:00 27 10 Sudoeste 23 Sur 0 -- -- 32
2019-08-17 10:00:00 22.2 5 Sudeste 15 Sudeste 0 -- -- 54
2019-08-17 09:00:00 15.1 2 Nordeste 6 Este 0 -- -- 68
2019-08-17 08:00:00 11 3 Sur 5 Sudeste 0 -- -- 77
2019-08-17 07:00:00 10.5 2 Sudeste 5 Sur 0 -- -- 77
2019-08-17 06:00:00 11.2 3 Sur 7 Sudoeste 0 -- -- 75
2019-08-17 05:00:00 11.8 2 Oeste 6 Sudeste 0 -- -- 74
2019-08-17 04:00:00 12.3 2 Sudoeste 5 Este 0 -- -- 71
2019-08-17 03:00:00 13 0 Calma 5 Sur 0 -- -- 70
2019-08-17 02:00:00 13.9 2 Sur 6 Sudeste 0 -- -- 65
2019-08-17 01:00:00 14.9 0 Calma 7 Sudeste 0 -- -- 62
2019-08-17 00:00:00 16.4 0 Calma 5 Sur 0 -- -- 59
2019-08-16 23:00:00 18.5 3 Sur 7 Sur 0 -- -- 53
2019-08-16 22:00:00 21.7 0 Calma 7 Nordeste 0 -- -- 45
2019-08-16 21:00:00 24.6 6 Nordeste 17 Nordeste 0 -- -- 39
2019-08-16 20:00:00 26 10 Nordeste 21 Nordeste 0 -- -- 36
2019-08-16 19:00:00 27.2 13 Nordeste 23 Nordeste 0 -- -- 34
2019-08-16 18:00:00 27.6 12 Nordeste 27 Nordeste 0 -- -- 32
2019-08-16 17:00:00 27.2 16 Nordeste 29 Nordeste 0 -- -- 34
2019-08-16 16:00:00 26.9 13 Nordeste 27 Norte 0 -- -- 34
2019-08-16 15:00:00 26.7 11 Este 25 Norte 0 -- -- 37
2019-08-16 14:00:00 28.5 8 Sudoeste 23 Sudoeste 0 -- -- 33
2019-08-16 13:00:00 27.9 12 Sudeste 26 Sudeste 0 -- -- 36
2019-08-16 12:00:00 26.8 10 Sur 21 Este 0 -- -- 37
2019-08-16 11:00:00 24.7 9 Sur 17 Sur 0 -- -- 42
2019-08-16 10:00:00 19.1 0 Calma -- -- 0 -- -- 53
2019-08-16 09:00:00 12.9 0 Calma -- -- 0 -- -- 73
2019-08-16 08:00:00 9.4 0 Calma -- -- 0 -- -- 79
2019-08-16 07:00:00 8.8 0 Calma -- -- 0 -- -- 79
2019-08-16 06:00:00 9 0 Calma 3 Sudoeste 0 -- -- 79
2019-08-16 05:00:00 9.4 0 Calma 8 Sur 0 -- -- 78
2019-08-16 04:00:00 10 2 Sur 4 Noroeste 0 -- -- 79
2019-08-16 03:00:00 10.5 3 Sur 6 Sudoeste 0 -- -- 78
2019-08-16 02:00:00 11.5 3 Oeste 6 Sudoeste 0 -- -- 76
2019-08-16 01:00:00 12.9 0 Calma 5 Sudeste 0 -- -- 72
2019-08-16 00:00:00 14.5 0 Calma 6 Sudoeste 0 -- -- 69
2019-08-15 23:00:00 16 0 Calma 7 Nordeste 0 -- -- 64
2019-08-15 22:00:00 17.6 2 Oeste 20 Norte 0 -- -- 60
2019-08-15 21:00:00 19.3 10 Norte 26 Norte 0 -- -- 55
2019-08-15 20:00:00 20.7 14 Norte 28 Norte 0 -- -- 50
2019-08-15 19:00:00 22.4 14 Norte 29 Norte 0 -- -- 48
2019-08-15 18:00:00 23.5 13 Norte 30 Nordeste 0 -- -- 47
2019-08-15 17:00:00 22.9 15 Nordeste 33 Nordeste 0 -- -- 48
2019-08-15 16:00:00 23.6 12 Nordeste 26 Nordeste 0 -- -- 48
2019-08-15 15:00:00 23.4 11 Nordeste 21 Nordeste 0 -- -- 50
2019-08-15 14:00:00 22.9 7 Norte 21 Norte 0 -- -- 51
2019-08-15 13:00:00 21.5 13 Nordeste 28 Norte 0 -- -- 56
2019-08-15 12:00:00 21.1 10 Nordeste 21 Nordeste 0 -- -- 59
2019-08-15 11:00:00 20.3 9 Nordeste 15 Nordeste 0 -- -- 60
2019-08-15 10:00:00 17.9 0 Calma 7 Nordeste 0 -- -- 68
2019-08-15 09:00:00 13.1 3 Sudeste 5 Este 0 -- -- 79
2019-08-15 08:00:00 9.4 0 Calma 4 Noroeste 0 -- -- 83
2019-08-15 07:00:00 9.1 0 Calma 3 Sudeste 0 -- -- 84
2019-08-15 06:00:00 9.3 2 Oeste 5 Sudeste 0 -- -- 83
2019-08-15 05:00:00 9.7 0 Calma 5 Sur 0 -- -- 80
2019-08-15 04:00:00 10.5 0 Calma 6 Sur 0 -- -- 79
2019-08-15 03:00:00 11.1 0 Calma 3 Oeste 0 -- -- 77
2019-08-15 02:00:00 12.1 0 Calma 8 Sur 0 -- -- 74
2019-08-15 01:00:00 13.6 3 Sudoeste 6 Sudoeste 0 -- -- 68
2019-08-15 00:00:00 15.9 3 Sudoeste 8 Norte 0 -- -- 62
2019-08-14 23:00:00 18.1 3 Este 15 Este 0 -- -- 57
2019-08-14 22:00:00 19.5 9 Nordeste 19 Nordeste 0 -- -- 53
2019-08-14 21:00:00 21.5 15 Nordeste 30 Nordeste 0 -- -- 48
2019-08-14 20:00:00 23.8 21 Nordeste 32 Nordeste 0 -- -- 40
2019-08-14 19:00:00 25.2 13 Nordeste 24 Nordeste 0 -- -- 33
2019-08-14 18:00:00 27.1 10 Nordeste 25 Este 0 -- -- 31
2019-08-14 17:00:00 26.9 13 Este 26 Este 0 -- -- 30
2019-08-14 16:00:00 26.2 9 Norte 26 Nordeste 0 -- -- 30
2019-08-14 15:00:00 25.7 13 Este 26 Este 0 -- -- 32
2019-08-14 14:00:00 25.6 8 Nordeste 30 Sudoeste 0 -- -- 31
2019-08-14 13:00:00 25.6 13 Sudoeste 26 Oeste 0 -- -- 30
2019-08-14 12:00:00 23.4 11 Oeste 27 Oeste 0 -- -- 32
2019-08-14 11:00:00 21.7 15 Noroeste 25 Oeste 0 -- -- 33
2019-08-14 10:00:00 16.9 0 Calma 5 Este 0 -- -- 52
2019-08-14 09:00:00 10 0 Calma 5 Sudeste 0 -- -- 71
2019-08-14 08:00:00 5.3 0 Calma 4 Sudeste 0 -- -- 79
2019-08-14 07:00:00 5.4 0 Calma 4 Sur 0 -- -- 78
2019-08-14 06:00:00 5.8 0 Calma -- -- 0 -- -- 79
2019-08-14 05:00:00 6.5 0 Calma 5 Sur 0 -- -- 78
2019-08-14 04:00:00 6.9 0 Calma -- -- 0 -- -- 78
2019-08-14 03:00:00 7.3 0 Calma 4 Sudeste 0 -- -- 77
2019-08-14 02:00:00 8.1 0 Calma 5 Sudoeste 0 -- -- 76
2019-08-14 01:00:00 9.2 0 Calma 4 Sur 0 -- -- 73
2019-08-14 00:00:00 10.6 3 Sur 8 Sudeste 0 -- -- 70
2019-08-13 23:00:00 12.9 4 Sudoeste 7 Sudoeste 0 -- -- 61
2019-08-13 22:00:00 15.3 7 Norte 20 Nordeste 0 -- -- 58
2019-08-13 21:00:00 16.7 11 Nordeste 21 Norte 0 -- -- 53
2019-08-13 20:00:00 18.7 11 Norte 25 Noroeste 0 -- -- 43
2019-08-13 19:00:00 20.2 12 Norte 30 Noroeste 0 -- -- 38
2019-08-13 18:00:00 20.6 14 Norte 30 Norte 0 -- -- 37
2019-08-13 17:00:00 20.9 15 Nordeste 30 Nordeste 0 -- -- 36
2019-08-13 16:00:00 20.9 14 Nordeste 28 Nordeste 0 -- -- 37
2019-08-13 15:00:00 20.2 11 Nordeste 20 Nordeste 0 -- -- 39
2019-08-13 14:00:00 19 11 Nordeste 23 Nordeste 0 -- -- 42
2019-08-13 13:00:00 -- -- -- -- -- -- -- -- --
2019-08-13 12:00:00 -- -- -- -- -- -- -- -- --
2019-08-13 11:00:00 -- -- -- -- -- -- -- -- --
2019-08-13 10:00:00 -- -- -- -- -- -- -- -- --
2019-08-13 09:00:00 -- -- -- -- -- -- -- -- --
2019-08-13 08:00:00 -- -- -- -- -- -- -- -- --
2019-08-13 07:00:00 -- -- -- -- -- -- -- -- --
2019-08-13 06:00:00 -- -- -- -- -- -- -- -- --
2019-08-13 05:00:00 -- -- -- -- -- -- -- -- --
2019-08-13 04:00:00 -- -- -- -- -- -- -- -- --
2019-08-13 03:00:00 -- -- -- -- -- -- -- -- --
2019-08-13 02:00:00 -- -- -- -- -- -- -- -- --
2019-08-13 01:00:00 -- -- -- -- -- -- -- -- --
2019-08-13 00:00:00 -- -- -- -- -- -- -- -- --
2019-08-12 23:00:00 -- -- -- -- -- -- -- -- --
2019-08-12 22:00:00 -- -- -- -- -- -- -- -- --
2019-08-12 21:00:00 -- -- -- -- -- -- -- -- --
2019-08-12 20:00:00 -- -- -- -- -- -- -- -- --
2019-08-12 19:00:00 -- -- -- -- -- -- -- -- --
2019-08-12 18:00:00 -- -- -- -- -- -- -- -- --
2019-08-12 17:00:00 -- -- -- -- -- -- -- -- --
2019-08-12 16:00:00 -- -- -- -- -- -- -- -- --
2019-08-12 15:00:00 -- -- -- -- -- -- -- -- --
2019-08-12 14:00:00 -- -- -- -- -- -- -- -- --
2019-08-12 13:00:00 16.2 17 Noroeste 27 Noroeste 0 -- -- 49
2019-08-12 12:00:00 16.2 12 Noroeste 31 Noroeste 0 -- -- 49
2019-08-12 11:00:00 14.9 10 Noroeste 27 Noroeste 0 -- -- 54
2019-08-12 10:00:00 13.1 8 Oeste 25 Noroeste 0 -- -- 59
2019-08-12 09:00:00 11.9 8 Norte 22 Noroeste 0 -- -- 64
2019-08-12 08:00:00 10.7 3 Noroeste 15 Noroeste 0 -- -- 74
2019-08-12 07:00:00 9.7 4 Sudoeste 18 Oeste 0 -- -- 79
2019-08-12 06:00:00 10.8 5 Sudoeste 22 Oeste 0 -- -- 78
2019-08-12 05:00:00 11 18 Oeste 23 Noroeste 0 -- -- 81
2019-08-12 04:00:00 11.9 13 Noroeste 25 Noroeste 0 -- -- 76
2019-08-12 03:00:00 12.1 14 Noroeste 27 Noroeste 0 -- -- 76
2019-08-12 02:00:00 12.5 12 Norte 27 Norte 0 -- -- 78
2019-08-12 01:00:00 12.8 12 Norte 26 Norte 0 -- -- 79
2019-08-12 00:00:00 13.2 12 Norte 28 Norte 0 -- -- 78
2019-08-11 23:00:00 14 14 Norte 27 Norte 0 -- -- 75
2019-08-11 22:00:00 14.9 12 Norte 30 Norte 0 -- -- 72
2019-08-11 21:00:00 16.3 17 Norte 28 Norte 0 -- -- 67
2019-08-11 20:00:00 18.3 14 Nordeste 24 Nordeste 0 -- -- 59
2019-08-11 19:00:00 19.1 10 Norte 24 Norte 0 -- -- 56
2019-08-11 18:00:00 20 13 Norte 26 Norte 0 -- -- 52
2019-08-11 17:00:00 19.8 17 Nordeste 29 Nordeste 0 -- -- 55
2019-08-11 16:00:00 20.3 11 Nordeste 21 Norte 0 -- -- 54
2019-08-11 15:00:00 20.1 13 Nordeste 27 Nordeste 0 -- -- 55
2019-08-11 14:00:00 19.5 14 Nordeste 28 Nordeste 0 -- -- 59
2019-08-11 13:00:00 20.2 11 Nordeste 24 Nordeste 0 -- -- 57
2019-08-11 12:00:00 20.2 6 Este 14 Este 0 -- -- 55
2019-08-11 11:00:00 18.2 5 Este 10 Sudeste 0 -- -- 66
2019-08-11 10:00:00 15.5 0 Calma 9 Nordeste 0 -- -- 77
2019-08-11 09:00:00 14.4 3 Nordeste 12 Oeste 0.4 -- -- 84
2019-08-11 08:00:00 14.6 8 Noroeste 17 Norte 0.4 -- -- 86
2019-08-11 07:00:00 14.2 0 Calma 3 Oeste 0 -- -- 87
2019-08-11 06:00:00 14.2 0 Calma 4 Norte 0 -- -- 85
2019-08-11 05:00:00 14.6 0 Calma 5 Oeste 0 -- -- 85
2019-08-11 04:00:00 14.7 0 Calma 7 Sur 0 -- -- 85
2019-08-11 03:00:00 14.9 0 Calma 4 Sudeste 0 -- -- 85
2019-08-11 02:00:00 15 0 Calma 7 Norte 0 -- -- 84
2019-08-11 01:00:00 15.8 0 Calma 5 Nordeste 0 -- -- 80
2019-08-11 00:00:00 16.7 0 Calma 8 Este 0 -- -- 80
2019-08-10 23:00:00 17.5 3 Este 8 Sudeste 0.6 -- -- 77
2019-08-10 22:00:00 19 3 Sudeste 19 Nordeste 0 -- -- 64
2019-08-10 21:00:00 19.8 10 Nordeste 26 Nordeste 0 -- -- 58
2019-08-10 20:00:00 21.7 12 Nordeste 27 Este 0 -- -- 50
2019-08-10 19:00:00 22.9 17 Nordeste 31 Este 0 -- -- 48
2019-08-10 18:00:00 24.1 15 Nordeste 26 Nordeste 0 -- -- 43
2019-08-10 17:00:00 25.7 10 Sur 30 Sur 0 -- -- 38
2019-08-10 16:00:00 25.8 10 Este 26 Sudeste 0 -- -- 40
2019-08-10 15:00:00 25.3 14 Sur 29 Sudeste 0 -- -- 38
2019-08-10 14:00:00 24.6 10 Sur 24 Este 0 -- -- 42
2019-08-10 13:00:00 23 10 Sudeste 21 Sudeste 0 -- -- 45
2019-08-10 12:00:00 21.9 8 Este 20 Sur 0 -- -- 42
2019-08-10 11:00:00 20 4 Este 10 Este 0 -- -- 45
2019-08-10 10:00:00 16.3 0 Calma 5 Sudeste 0 -- -- 63
2019-08-10 09:00:00 11.6 0 Calma 5 Sudeste 0 -- -- 77
2019-08-10 08:00:00 8.9 0 Calma 4 Sudeste 0 -- -- 82
2019-08-10 07:00:00 8.4 2 Sur 4 Sudoeste 0 -- -- 82
2019-08-10 06:00:00 9.3 0 Calma 4 Sudoeste 0 -- -- 80
2019-08-10 05:00:00 10.1 0 Calma 7 Sur 0 -- -- 79
2019-08-10 04:00:00 11 2 Noroeste 7 Oeste 0 -- -- 76
2019-08-10 03:00:00 12.8 0 Calma 8 Sur 0 -- -- 75
2019-08-10 02:00:00 14.1 2 Sudoeste 12 Sur 0 -- -- 69
2019-08-10 01:00:00 16.3 0 Calma 19 Sudeste 0 -- -- 69
2019-08-10 00:00:00 17.6 10 Sur 19 Sudoeste 0 -- -- 66
2019-08-09 23:00:00 19.1 7 Sur 21 Sur 0 -- -- 64
2019-08-09 22:00:00 19.1 11 Sudoeste 28 Sudoeste 0 -- -- 60
2019-08-09 21:00:00 21.3 19 Oeste 36 Oeste 0 -- -- 61
2019-08-09 20:00:00 23.2 15 Oeste 26 Sudoeste 0 -- -- 63
2019-08-09 19:00:00 21.2 5 Sur 66 Sudeste 3.2 -- -- 78
2019-08-09 18:00:00 29.8 14 Sudoeste 34 Oeste 0 -- -- 40
2019-08-09 17:00:00 29.2 10 Sudoeste 31 Sudoeste 0 -- -- 40
2019-08-09 16:00:00 28.9 18 Oeste 40 Oeste 0 -- -- 40
2019-08-09 15:00:00 29.8 20 Sudoeste 49 Sudoeste 0 -- -- 36
2019-08-09 14:00:00 29 19 Oeste 42 Oeste 0 -- -- 37
2019-08-09 13:00:00 27.6 23 Sudoeste 42 Sur 0 -- -- 38
2019-08-09 12:00:00 26.4 17 Sur 32 Sudoeste 0 -- -- 44
2019-08-09 11:00:00 25.1 18 Sudoeste 35 Sudoeste 0 -- -- 46
2019-08-09 10:00:00 23.5 19 Sudoeste 37 Sudoeste 0 -- -- 51
2019-08-09 09:00:00 22.1 14 Sudoeste 27 Sudoeste 0 -- -- 55
2019-08-09 08:00:00 19 2 Sur 19 Oeste 0 -- -- 66
2019-08-09 07:00:00 18.8 6 Sudoeste 16 Sudoeste 0 -- -- 66
2019-08-09 06:00:00 19 5 Sudoeste 14 Sudoeste 0 -- -- 64
2019-08-09 05:00:00 19.9 5 Sudoeste 23 Sudoeste 0 -- -- 60
2019-08-09 04:00:00 20.4 5 Sur 13 Sudoeste 0 -- -- 57
2019-08-09 03:00:00 19.9 4 Sur 12 Sur 0 -- -- 56
2019-08-09 02:00:00 21.6 8 Sur 15 Sudoeste 0 -- -- 51
2019-08-09 01:00:00 20.9 0 Calma 10 Sur 0 -- -- 52
2019-08-09 00:00:00 22.5 4 Sur 12 Sudoeste 0 -- -- 48
2019-08-08 23:00:00 24.9 6 Sudoeste 19 Sudoeste 0 -- -- 44
2019-08-08 22:00:00 26.6 12 Sur 27 Sur 0 -- -- 42
2019-08-08 21:00:00 27.7 6 Sur 15 Sudoeste 0 -- -- 41
2019-08-08 20:00:00 28.7 8 Sur 27 Sur 0 -- -- 39
2019-08-08 19:00:00 29.7 14 Sur 32 Sur 0 -- -- 37
2019-08-08 18:00:00 28.6 12 Sudoeste 36 Sudoeste 0 -- -- 40
2019-08-08 17:00:00 28.9 19 Sudoeste 40 Sudoeste 0 -- -- 39
2019-08-08 16:00:00 29.6 16 Oeste 41 Sudoeste 0 -- -- 38
2019-08-08 15:00:00 28.5 17 Sudoeste 40 Sudoeste 0 -- -- 40
2019-08-08 14:00:00 27.7 18 Sudoeste 37 Sudoeste 0 -- -- 41
2019-08-08 13:00:00 26.2 19 Sudoeste 42 Sudoeste 0 -- -- 45
2019-08-08 12:00:00 25.3 17 Sudoeste 36 Sur 0 -- -- 48
2019-08-08 11:00:00 23.1 15 Sudoeste 32 Sudoeste 0 -- -- 53
2019-08-08 10:00:00 21.5 9 Sur 22 Sur 0 -- -- 53
2019-08-08 09:00:00 18.5 13 Sur 23 Sur 0 -- -- 62
2019-08-08 08:00:00 17.1 5 Sudeste 18 Oeste 0 -- -- 65
2019-08-08 07:00:00 16.1 3 Sur 12 Sudoeste 0 -- -- 67
2019-08-08 06:00:00 15.5 8 Sur 14 Sur 0 -- -- 68
2019-08-08 05:00:00 15.1 3 Sur 7 Sur 0 -- -- 69
2019-08-08 04:00:00 16 2 Sur 14 Sudoeste 0 -- -- 65
2019-08-08 03:00:00 16.7 0 Calma 5 Sudoeste 0 -- -- 64
2019-08-08 02:00:00 18.2 0 Calma 9 Sur 0 -- -- 59
2019-08-08 01:00:00 19.3 3 Sur 13 Sur 0 -- -- 55
2019-08-08 00:00:00 19.2 0 Calma 8 Sur 0 -- -- 55
2019-08-07 23:00:00 19.4 0 Calma 6 Oeste 0 -- -- 52
2019-08-07 22:00:00 21 3 Oeste 19 Sudoeste 0 -- -- 48
2019-08-07 21:00:00 22.9 13 Sudoeste 23 Sudoeste 0 -- -- 44
2019-08-07 20:00:00 23.8 12 Oeste 28 Sudoeste 0 -- -- 42
2019-08-07 19:00:00 24.2 16 Sudoeste 28 Oeste 0 -- -- 40
2019-08-07 18:00:00 24.3 14 Sudoeste 35 Sudoeste 0 -- -- 42
2019-08-07 17:00:00 23.5 17 Sudoeste 32 Sudoeste 0 -- -- 48
2019-08-07 16:00:00 25 16 Sudoeste 28 Sudoeste 0 -- -- 39
2019-08-07 15:00:00 25.3 12 Sudoeste 29 Sudoeste 0 -- -- 41
2019-08-07 14:00:00 24.9 6 Sudeste 24 Este 0 -- -- 42
2019-08-07 13:00:00 23.3 15 Nordeste 22 Nordeste 0 -- -- 51
2019-08-07 12:00:00 23.2 10 Nordeste 18 Norte 0 -- -- 51
2019-08-07 11:00:00 22.8 9 Nordeste 16 Nordeste 0 -- -- 50
2019-08-07 10:00:00 22.7 3 Este 7 Este 0 -- -- 52
2019-08-07 09:00:00 18.2 0 Calma 5 Sur 0 -- -- 72
2019-08-07 08:00:00 15.1 3 Sudeste 6 Sur 0 -- -- 81
2019-08-07 07:00:00 15.5 0 Calma 7 Sur 0 -- -- 78
2019-08-07 06:00:00 16.2 0 Calma 12 Sudoeste 0 -- -- 76
2019-08-07 05:00:00 16.8 5 Oeste 11 Oeste 0 -- -- 75
2019-08-07 04:00:00 17.3 3 Noroeste 13 Nordeste 0 -- -- 73
2019-08-07 03:00:00 18 0 Calma 12 Norte 0 -- -- 74
2019-08-07 02:00:00 18.7 6 Nordeste 15 Nordeste 0 -- -- 72
2019-08-07 01:00:00 19.8 3 Norte 10 Nordeste 0 -- -- 70
2019-08-07 00:00:00 20.8 9 Nordeste 22 Nordeste 0 -- -- 68
2019-08-06 23:00:00 22.3 7 Nordeste 15 Nordeste 0 -- -- 63
2019-08-06 22:00:00 24 0 Calma 12 Norte 0 -- -- 46
2019-08-06 21:00:00 25.4 8 Nordeste 17 Nordeste 0 -- -- 43
2019-08-06 20:00:00 26.4 10 Nordeste 21 Nordeste 0 -- -- 43
2019-08-06 19:00:00 27.2 13 Nordeste 30 Este 0 -- -- 42
2019-08-06 18:00:00 27.5 15 Nordeste 24 Nordeste 0 -- -- 42
2019-08-06 17:00:00 29.4 12 Nordeste 33 Sur 0 -- -- 38
2019-08-06 16:00:00 31.5 10 Sudoeste 27 Sudoeste 0 -- -- 22
2019-08-06 15:00:00 30.1 12 Sudoeste 38 Oeste 0 -- -- 27
2019-08-06 14:00:00 30.1 10 Sudoeste 30 Noroeste 0 -- -- 26
2019-08-06 13:00:00 29 14 Sudoeste 33 Sudoeste 0 -- -- 29
2019-08-06 12:00:00 28.8 10 Sur 22 Sudoeste 0 -- -- 32
2019-08-06 11:00:00 26.8 12 Sur 21 Sur 0 -- -- 41
2019-08-06 10:00:00 22.4 0 Calma 3 Este 0 -- -- 59
2019-08-06 09:00:00 16.2 0 Calma 4 Sudeste 0 -- -- 80
2019-08-06 08:00:00 12.5 0 Calma 7 Sur 0 -- -- 85
2019-08-06 07:00:00 11.9 5 Sudeste 6 Sudeste 0 -- -- 85
2019-08-06 06:00:00 12.9 0 Calma 5 Sur 0 -- -- 84
2019-08-06 05:00:00 13.7 2 Sur 4 Sur 0 -- -- 81
2019-08-06 04:00:00 14.5 0 Calma 3 Sur 0 -- -- 79
2019-08-06 03:00:00 15.1 0 Calma 6 Sur 0 -- -- 77
2019-08-06 02:00:00 15.9 0 Calma 7 Sudoeste 0 -- -- 73
2019-08-06 01:00:00 17.1 0 Calma 4 Sur 0 -- -- 69
2019-08-06 00:00:00 18.6 2 Sur 5 Sudoeste 0 -- -- 65
2019-08-05 23:00:00 21.1 0 Calma 14 Nordeste 0 -- -- 58
2019-08-05 22:00:00 24.4 5 Nordeste 16 Norte 0 -- -- 50
2019-08-05 21:00:00 26.2 8 Nordeste 21 Este 0 -- -- 45
2019-08-05 20:00:00 27.4 13 Este 24 Nordeste 0 -- -- 41
2019-08-05 19:00:00 28.4 13 Nordeste 26 Nordeste 0 -- -- 40
2019-08-05 18:00:00 28.6 13 Nordeste 32 Este 0 -- -- 40
2019-08-05 17:00:00 28.4 17 Nordeste 29 Nordeste 0 -- -- 41
2019-08-05 16:00:00 28.4 17 Nordeste 28 Norte 0 -- -- 41
2019-08-05 15:00:00 27.6 13 Nordeste 25 Nordeste 0 -- -- 44
2019-08-05 14:00:00 28.3 10 Nordeste 25 Nordeste 0 -- -- 41
2019-08-05 13:00:00 26.5 13 Nordeste 22 Nordeste 0 -- -- 49
2019-08-05 12:00:00 25.8 11 Nordeste 16 Nordeste 0 -- -- 53
2019-08-05 11:00:00 24.2 7 Nordeste 13 Nordeste 0 -- -- 56
2019-08-05 10:00:00 20.9 4 Nordeste 7 Nordeste 0 -- -- 66
2019-08-05 09:00:00 15.7 0 Calma 6 Sur 0 -- -- 80
2019-08-05 08:00:00 12.5 0 Calma 4 Oeste 0 -- -- 86
2019-08-05 07:00:00 12 0 Calma 7 Sur 0 -- -- 83
2019-08-05 06:00:00 13 0 Calma 6 Sur 0 -- -- 84
2019-08-05 05:00:00 13.7 0 Calma -- -- 0 -- -- 81
2019-08-05 04:00:00 14.5 0 Calma 3 Sur 0 -- -- 80
2019-08-05 03:00:00 15.2 0 Calma 9 Sur 0 -- -- 80
2019-08-05 02:00:00 16.5 0 Calma 6 Sudoeste 0 -- -- 75
2019-08-05 01:00:00 17.6 0 Calma 9 Sur 0 -- -- 72
2019-08-05 00:00:00 18.9 2 Sudeste 8 Oeste 0 -- -- 68
2019-08-04 23:00:00 21.3 3 Oeste 7 Sudoeste 0 -- -- 59
2019-08-04 22:00:00 24.3 5 Nordeste 16 Nordeste 0 -- -- 57
2019-08-04 21:00:00 25.9 13 Nordeste 26 Norte 0 -- -- 49
2019-08-04 20:00:00 27.8 10 Norte 25 Norte 0 -- -- 41
2019-08-04 19:00:00 28.4 13 Nordeste 23 Nordeste 0 -- -- 43
2019-08-04 18:00:00 29.3 15 Norte 26 Nordeste 0 -- -- 40
2019-08-04 17:00:00 32.5 12 Sudoeste 31 Sudoeste 0 -- -- 20
2019-08-04 16:00:00 31.7 13 Sudoeste 31 Sur 0 -- -- 20
2019-08-04 15:00:00 31.4 16 Sudoeste 30 Sudoeste 0 -- -- 23
2019-08-04 14:00:00 30.3 13 Sur 28 Sur 0 -- -- 27
2019-08-04 13:00:00 29.5 12 Sur 25 Sudeste 0 -- -- 32
2019-08-04 12:00:00 27.8 10 Sudeste 21 Sudeste 0 -- -- 41
2019-08-04 11:00:00 25.2 11 Este 18 Este 0 -- -- 50
2019-08-04 10:00:00 20.9 0 Calma 4 Este 0 -- -- 63
2019-08-04 09:00:00 15.4 0 Calma 2 Sur 0 -- -- 78
2019-08-04 08:00:00 12.3 0 Calma 3 Sudeste 0 -- -- 83
2019-08-04 07:00:00 11.9 0 Calma 7 Sur 0 -- -- 83
2019-08-04 06:00:00 12.5 0 Calma 3 Sudoeste 0 -- -- 81
2019-08-04 05:00:00 13.5 0 Calma 4 Sudoeste 0 -- -- 80
2019-08-04 04:00:00 14.2 0 Calma 3 Sur 0 -- -- 76
2019-08-04 03:00:00 14.8 0 Calma 5 Sur 0 -- -- 75
2019-08-04 02:00:00 15.7 0 Calma 7 Sur 0 -- -- 70
2019-08-04 01:00:00 17.1 3 Sur 6 Sur 0 -- -- 64
2019-08-04 00:00:00 18.9 0 Calma 5 Este 0 -- -- 55
2019-08-03 23:00:00 21.7 0 Calma 9 Sur 0 -- -- 48
2019-08-03 22:00:00 25.4 4 Nordeste 19 Norte 0 -- -- 39
2019-08-03 21:00:00 26.9 10 Nordeste 21 Nordeste 0 -- -- 36
2019-08-03 20:00:00 28 12 Nordeste 26 Este 0 -- -- 32
2019-08-03 19:00:00 28.8 14 Nordeste 25 Nordeste 0 -- -- 32
2019-08-03 18:00:00 28.4 10 Nordeste 27 Nordeste 0 -- -- 31
2019-08-03 17:00:00 27.7 16 Nordeste 30 Nordeste 0 -- -- 33
2019-08-03 16:00:00 28.4 14 Nordeste 27 Este 0 -- -- 34
2019-08-03 15:00:00 31.4 10 Sudoeste 29 Sudoeste 0 -- -- 25
2019-08-03 14:00:00 28.7 7 Este 20 Este 0 -- -- 35
2019-08-03 13:00:00 28.4 9 Este 20 Nordeste 0 -- -- 33
2019-08-03 12:00:00 27.1 8 Sudeste 20 Este 0 -- -- 34
2019-08-03 11:00:00 25.4 11 Sudeste 20 Este 0 -- -- 36
2019-08-03 10:00:00 20.7 0 Calma 0 Calma 0 -- -- 50
2019-08-03 09:00:00 14.5 0 Calma 6 Sudeste 0 -- -- 70
2019-08-03 08:00:00 10.7 0 Calma 2 Sudoeste 0 -- -- 80
2019-08-03 07:00:00 10.3 0 Calma 3 Sur 0 -- -- 80
2019-08-03 06:00:00 10.5 0 Calma 4 Sudoeste 0 -- -- 79
2019-08-03 05:00:00 11.2 2 Sudoeste 4 Sur 0 -- -- 79
2019-08-03 04:00:00 11.8 3 Sur 6 Sur 0 -- -- 77
2019-08-03 03:00:00 12.7 0 Calma 5 Sur 0 -- -- 75
2019-08-03 02:00:00 13.9 0 Calma 5 Sur 0 -- -- 72
2019-08-03 01:00:00 14.9 0 Calma 8 Sur 0 -- -- 68
2019-08-03 00:00:00 16.7 4 Sur 13 Sur 0 -- -- 64
2019-08-02 23:00:00 19.4 4 Oeste 15 Norte 0 -- -- 56
2019-08-02 22:00:00 21.7 8 Nordeste 23 Nordeste 0 -- -- 49
2019-08-02 21:00:00 23.3 14 Nordeste 24 Nordeste 0 -- -- 47
2019-08-02 20:00:00 25.2 12 Norte 27 Norte 0 -- -- 40
2019-08-02 19:00:00 26.2 13 Nordeste 22 Nordeste 0 -- -- 37
2019-08-02 18:00:00 26.8 13 Este 25 Nordeste 0 -- -- 37
2019-08-02 17:00:00 26.7 13 Nordeste 24 Nordeste 0 -- -- 37
2019-08-02 16:00:00 25.9 14 Norte 25 Nordeste 0 -- -- 42
2019-08-02 15:00:00 27 11 Nordeste 26 Este 0 -- -- 41
2019-08-02 14:00:00 25.6 12 Nordeste 20 Nordeste 0 -- -- 45
2019-08-02 13:00:00 24.9 13 Nordeste 21 Nordeste 0 -- -- 47
2019-08-02 12:00:00 24.3 8 Nordeste 13 Nordeste 0 -- -- 46
2019-08-02 11:00:00 21.7 8 Nordeste 12 Nordeste 0 -- -- 55
2019-08-02 10:00:00 17.2 0 Calma 5 Sudeste 0 -- -- 71
2019-08-02 09:00:00 12.8 0 Calma 3 Sur 0 -- -- 90
2019-08-02 08:00:00 11.8 0 Calma 5 Sudoeste 0 -- -- 89
2019-08-02 07:00:00 12.3 2 Este 6 Sudoeste 0 -- -- 86
2019-08-02 06:00:00 13 2 Sur 9 Sur 0 -- -- 87
2019-08-02 05:00:00 14.1 5 Sur 9 Oeste 0 -- -- 85
2019-08-02 04:00:00 14.7 2 Sudeste 4 Sudeste 0 -- -- 86
2019-08-02 03:00:00 14.2 0 Calma 5 Sudoeste 0 -- -- 85
2019-08-02 02:00:00 15.2 0 Calma 6 Norte 0 -- -- 82
2019-08-02 01:00:00 16.7 4 Norte 9 Norte 0 -- -- 81
2019-08-02 00:00:00 17.3 2 Sudoeste 4 Noroeste 0 -- -- 79
2019-08-01 23:00:00 18.2 4 Norte 19 Nordeste 0 -- -- 76
2019-08-01 22:00:00 19.3 8 Norte 23 Nordeste 0 -- -- 74
2019-08-01 21:00:00 21.3 9 Nordeste 21 Norte 0 -- -- 68
2019-08-01 20:00:00 23.1 13 Norte 26 Norte 0 -- -- 57
2019-08-01 19:00:00 23.8 11 Norte 22 Nordeste 0 -- -- 53
2019-08-01 18:00:00 23.8 10 Nordeste 29 Nordeste 0 -- -- 55
2019-08-01 17:00:00 24.2 15 Nordeste 32 Nordeste 0 -- -- 52
2019-08-01 16:00:00 24.5 15 Nordeste 26 Nordeste 0 -- -- 53
2019-08-01 15:00:00 26 8 Sudeste 21 Este 0 -- -- 47
2019-08-01 14:00:00 24.5 6 Nordeste 15 Sudeste 0 -- -- 51
2019-08-01 13:00:00 22.5 10 Sudeste 21 Sudeste 0 -- -- 55
2019-08-01 12:00:00 20 4 Este 12 Nordeste 0 -- -- 63
2019-08-01 11:00:00 17.4 9 Nordeste 17 Nordeste 0 -- -- 70
2019-08-01 10:00:00 16 10 Nordeste 18 Nordeste 0 -- -- 73
2019-08-01 09:00:00 16.4 9 Nordeste 15 Este 0 -- -- 73
2019-08-01 08:00:00 14.9 3 Este 7 Este 0 -- -- 79
2019-08-01 07:00:00 13.8 0 Calma 8 Noroeste 0 -- -- 80
2019-08-01 06:00:00 13.4 0 Calma 8 Sudeste 0 -- -- 78
2019-08-01 05:00:00 13 2 Sur 7 Sudeste 0 -- -- 78
2019-08-01 04:00:00 12.9 0 Calma 4 Sudeste 0 -- -- 77
2019-08-01 03:00:00 13 2 Sudoeste 5 Sudoeste 0 -- -- 75
2019-08-01 02:00:00 13.5 0 Calma 4 Este 0 -- -- 73
2019-08-01 01:00:00 13.7 2 Sudeste 4 Este 0 -- -- 71
2019-08-01 00:00:00 14.7 0 Calma 5 Sur 0 -- -- 67
2019-07-31 23:00:00 16.9 0 Calma 6 Sur 0 -- -- 60
2019-07-31 22:00:00 19.8 3 Este 13 Nordeste 0 -- -- 51
2019-07-31 21:00:00 21.1 8 Nordeste 23 Nordeste 0 -- -- 48
2019-07-31 20:00:00 22.8 10 Este 25 Este 0 -- -- 42
2019-07-31 19:00:00 23.4 14 Nordeste 24 Nordeste 0 -- -- 39
2019-07-31 18:00:00 24.1 13 Nordeste 26 Nordeste 0 -- -- 36
2019-07-31 17:00:00 23.8 14 Nordeste 26 Nordeste 0 -- -- 34
2019-07-31 16:00:00 23.3 14 Nordeste 27 Nordeste 0 -- -- 35
2019-07-31 15:00:00 22.9 15 Nordeste 25 Este 0 -- -- 34
2019-07-31 14:00:00 22.8 8 Nordeste 20 Norte 0 -- -- 35
2019-07-31 13:00:00 20.4 10 Nordeste 18 Nordeste 0 -- -- 37
2019-07-31 12:00:00 19.6 12 Nordeste 20 Nordeste 0 -- -- 37
2019-07-31 11:00:00 17.4 3 Este 8 Este 0 -- -- 44
2019-07-31 10:00:00 13.5 0 Calma 5 Sudeste 0 -- -- 67
2019-07-31 09:00:00 9.4 2 Sudeste 4 Sudeste 0 -- -- 80
2019-07-31 08:00:00 6.1 0 Calma 3 Este 0 -- -- 87
2019-07-31 07:00:00 5.1 0 Calma 4 Sudeste 0 -- -- 86
2019-07-31 06:00:00 5.7 0 Calma 4 Sur 0 -- -- 85
2019-07-31 05:00:00 6.3 0 Calma 5 Noroeste 0 -- -- 84
2019-07-31 04:00:00 7.1 2 Sudoeste 8 Sudoeste 0 -- -- 85
2019-07-31 03:00:00 7.3 0 Calma 5 Este 0 -- -- 82
2019-07-31 02:00:00 8.7 0 Calma 4 Este 0 -- -- 78
2019-07-31 01:00:00 10.6 0 Calma 9 Nordeste 0 -- -- 76
2019-07-31 00:00:00 11.7 5 Norte 15 Nordeste 0 -- -- 73
2019-07-30 23:00:00 12.5 8 Norte 27 Norte 0 -- -- 69
2019-07-30 22:00:00 13.5 14 Norte 28 Norte 0 -- -- 66
2019-07-30 21:00:00 14.8 19 Nordeste 32 Nordeste 0 -- -- 61
2019-07-30 20:00:00 17.5 18 Nordeste 29 Norte 0 -- -- 49
2019-07-30 19:00:00 18.9 15 Norte 30 Norte 0 -- -- 45
2019-07-30 18:00:00 19.3 14 Norte 29 Norte 0 -- -- 45
2019-07-30 17:00:00 18.8 12 Norte 26 Norte 0 -- -- 46
2019-07-30 16:00:00 19.1 13 Norte 28 Norte 0 -- -- 45
2019-07-30 15:00:00 19.2 13 Norte 27 Norte 0 -- -- 46
2019-07-30 14:00:00 19.1 12 Norte 25 Nordeste 0 -- -- 46
2019-07-30 13:00:00 18 9 Norte 25 Nordeste 0 -- -- 50
2019-07-30 12:00:00 16.5 9 Norte 23 Nordeste 0 -- -- 53
2019-07-30 11:00:00 14.8 10 Norte 22 Norte 0 -- -- 58
2019-07-30 10:00:00 13.7 8 Norte 17 Nordeste 0 -- -- 66
2019-07-30 09:00:00 12.2 11 Norte 22 Nordeste 0 -- -- 75
2019-07-30 08:00:00 11.4 14 Norte 24 Nordeste 0 -- -- 79
2019-07-30 07:00:00 11.6 13 Norte 22 Norte 0 -- -- 81
2019-07-30 06:00:00 12 9 Nordeste 18 Nordeste 0 -- -- 82
2019-07-30 05:00:00 12.7 7 Nordeste 16 Nordeste 0 -- -- 80
2019-07-30 04:00:00 13.4 2 Norte 13 Noroeste 0 -- -- 76
2019-07-30 03:00:00 13.1 4 Noroeste 17 Nordeste 0 -- -- 76
2019-07-30 02:00:00 13.5 6 Nordeste 18 Nordeste 0 -- -- 78
2019-07-30 01:00:00 13.9 6 Nordeste 14 Nordeste 0 -- -- 78
2019-07-30 00:00:00 15.2 4 Nordeste 12 Este 0 -- -- 75
2019-07-29 23:00:00 17 5 Nordeste 15 Nordeste 0 -- -- 70
2019-07-29 22:00:00 18.7 9 Nordeste 27 Norte 0 -- -- 64
2019-07-29 21:00:00 20.4 18 Nordeste 32 Nordeste 0 -- -- 59
2019-07-29 20:00:00 25.2 14 Nordeste 32 Este 0 -- -- 46
2019-07-29 19:00:00 28.1 9 Oeste 36 Oeste 0 -- -- 26
2019-07-29 18:00:00 28.8 19 Oeste 33 Oeste 0 -- -- 26
2019-07-29 17:00:00 28.5 13 Oeste 38 Sudoeste 0 -- -- 26
2019-07-29 16:00:00 28.1 18 Sudoeste 42 Sudoeste 0 -- -- 27
2019-07-29 15:00:00 27.3 14 Sudoeste 31 Sudoeste 0 -- -- 29
2019-07-29 14:00:00 26.1 13 Sudoeste 36 Sudoeste 0 -- -- 32
2019-07-29 13:00:00 24.9 12 Sudoeste 28 Sudeste 0 -- -- 33
2019-07-29 12:00:00 23.8 14 Sur 30 Sur 0 -- -- 35
2019-07-29 11:00:00 23.4 11 Sudoeste 24 Sur 0 -- -- 35
2019-07-29 10:00:00 19.4 0 Calma 6 Noroeste 0 -- -- 52
2019-07-29 09:00:00 12.6 0 Calma 6 Sudeste 0 -- -- 77
2019-07-29 08:00:00 8.5 0 Calma 3 Sudeste 0 -- -- 84
2019-07-29 07:00:00 7.5 0 Calma 4 Sudoeste 0 -- -- 85
2019-07-29 06:00:00 7.7 4 Sur 6 Sur 0 -- -- 84
2019-07-29 05:00:00 7.9 2 Sudeste 6 Sudoeste 0 -- -- 84
2019-07-29 04:00:00 8.2 2 Sur 5 Sudeste 0 -- -- 84
2019-07-29 03:00:00 8.7 2 Sudeste 5 Sudoeste 0 -- -- 82
2019-07-29 02:00:00 9.7 2 Sudoeste 5 Sudoeste 0 -- -- 80
2019-07-29 01:00:00 10.7 3 Oeste 6 Sur 0 -- -- 78
2019-07-29 00:00:00 11.9 0 Calma 8 Sudoeste 0 -- -- 74
2019-07-28 23:00:00 14.5 0 Calma 5 Sudoeste 0 -- -- 65
2019-07-28 22:00:00 16.9 4 Nordeste 19 Norte 0 -- -- 57
2019-07-28 21:00:00 18.9 9 Nordeste 19 Nordeste 0 -- -- 51
2019-07-28 20:00:00 20.3 11 Nordeste 23 Nordeste 0 -- -- 48
2019-07-28 19:00:00 20.7 14 Nordeste 24 Norte 0 -- -- 47
2019-07-28 18:00:00 21.4 12 Nordeste 22 Nordeste 0 -- -- 45
2019-07-28 17:00:00 21 14 Nordeste 23 Nordeste 0 -- -- 46
2019-07-28 16:00:00 21.6 11 Sudeste 19 Sudeste 0 -- -- 44
2019-07-28 15:00:00 20.7 6 Nordeste 19 Nordeste 0 -- -- 46
2019-07-28 14:00:00 19 7 Norte 18 Nordeste 0 -- -- 47
2019-07-28 13:00:00 17.8 7 Nordeste 21 Sudeste 0 -- -- 54
2019-07-28 12:00:00 16.8 8 Nordeste 18 Nordeste 0 -- -- 56
2019-07-28 11:00:00 14.7 4 Oeste 20 Oeste 0 -- -- 63
2019-07-28 10:00:00 12.7 12 Oeste 24 Oeste 0 -- -- 67
2019-07-28 09:00:00 11.3 11 Noroeste 20 Noroeste 0 -- -- 75
2019-07-28 08:00:00 10.4 5 Noroeste 22 Noroeste 0 -- -- 78
2019-07-28 07:00:00 10.5 9 Oeste 17 Oeste 0 -- -- 77
2019-07-28 06:00:00 10.8 10 Noroeste 22 Oeste 0 -- -- 77
2019-07-28 05:00:00 10.7 6 Sudeste 13 Norte 0 -- -- 77
2019-07-28 04:00:00 10.5 4 Nordeste 20 Noroeste 0 -- -- 76
2019-07-28 03:00:00 11.7 12 Noroeste 22 Noroeste 0 -- -- 71
2019-07-28 02:00:00 11.7 11 Noroeste 22 Noroeste 0 -- -- 76
2019-07-28 01:00:00 11.8 15 Noroeste 29 Noroeste 0 -- -- 74
2019-07-28 00:00:00 12 12 Noroeste 30 Noroeste 0 -- -- 72
2019-07-27 23:00:00 12.4 17 Noroeste 32 Noroeste 0 -- -- 75
2019-07-26 12:00:00 -- -- -- -- -- -- -- -- --
2019-07-26 11:00:00 19 4 Nordeste 14 Este 0 -- -- 76
2019-07-26 10:00:00 17.4 7 Sudoeste 19 Nordeste 0.2 -- -- 83
2019-07-26 09:00:00 17 14 Este 28 Este 0.4 -- -- 86
2019-07-26 08:00:00 17.3 7 Sur 12 Noroeste 0.2 -- -- 85
2019-07-26 07:00:00 17.7 2 Sur 9 Norte 0.2 -- -- 81
2019-07-26 06:00:00 18.2 3 Sudoeste 9 Oeste 0.4 -- -- 78
2019-07-26 05:00:00 18.9 6 Nordeste 23 Oeste 0 -- -- 71
2019-07-26 04:00:00 19.2 8 Oeste 13 Oeste 0 -- -- 65
2019-07-26 03:00:00 20.2 8 Nordeste 25 Nordeste 0 -- -- 64
2019-07-26 02:00:00 21.6 15 Nordeste 25 Nordeste 0 -- -- 57
2019-07-26 01:00:00 21 3 Este 9 Este 0 -- -- 48
2019-07-26 00:00:00 22.2 2 Sudoeste 13 Oeste 0 -- -- 44
2019-07-25 23:00:00 23.6 10 Oeste 24 Este 0 -- -- 39
2019-07-25 22:00:00 25.3 3 Sudoeste 10 Sur 0 -- -- 31
2019-07-25 21:00:00 29 6 Sudoeste 29 Sudoeste 0 -- -- 24
2019-07-25 20:00:00 31.6 12 Sur 39 Sur 0 -- -- 21
2019-07-25 19:00:00 32.3 17 Sudoeste 36 Oeste 0 -- -- 21
2019-07-25 18:00:00 33 14 Sudoeste 41 Sur 0 -- -- 23
2019-07-25 17:00:00 33.1 21 Sudoeste 39 Sudoeste 0 -- -- 24
2019-07-25 16:00:00 31.7 12 Sudoeste 31 Sudoeste 0 -- -- 26
2019-07-25 15:00:00 32.4 10 Sur 33 Sudoeste 0 -- -- 27
2019-07-25 14:00:00 31.7 12 Sur 29 Sudoeste 0 -- -- 28
2019-07-25 13:00:00 31 12 Sur 22 Sur 0 -- -- 29
2019-07-25 12:00:00 29.3 11 Sur 22 Sur 0 -- -- 31
2019-07-25 11:00:00 27.2 12 Sur 28 Sudoeste 0 -- -- 33
2019-07-25 10:00:00 26 15 Sudoeste 23 Sudoeste 0 -- -- 33
2019-07-25 09:00:00 24.2 3 Nordeste 14 Sur 0 -- -- 38
2019-07-25 08:00:00 21 6 Sur 11 Sur 0 -- -- 43
2019-07-25 07:00:00 18.8 5 Sur 10 Sur 0 -- -- 48
2019-07-25 06:00:00 18.8 3 Este 6 Sur 0 -- -- 50
2019-07-25 05:00:00 19.6 3 Este 8 Sur 0 -- -- 48
2019-07-25 04:00:00 20.2 2 Nordeste 9 Sur 0 -- -- 49
2019-07-25 03:00:00 22.2 6 Sur 15 Sur 0 -- -- 41
2019-07-25 02:00:00 20.7 5 Sudoeste 10 Sudoeste 0 -- -- 45
2019-07-25 01:00:00 21 0 Calma 10 Oeste 0 -- -- 46
2019-07-25 00:00:00 21.1 0 Calma 9 Sudeste 0 -- -- 46
2019-07-24 23:00:00 23.3 0 Calma 13 Oeste 0 -- -- 40
2019-07-24 22:00:00 25.4 3 Oeste 14 Oeste 0 -- -- 35
2019-07-24 21:00:00 27.9 4 Oeste 33 Sudeste 0 -- -- 30
2019-07-24 20:00:00 31.3 22 Sudeste 36 Sudeste 0 -- -- 25
2019-07-24 19:00:00 32.8 14 Sur 32 Sur 0 -- -- 22
2019-07-24 18:00:00 33.1 13 Sur 29 Sur 0 -- -- 22
2019-07-24 17:00:00 32.8 19 Sur 36 Sudeste 0 -- -- 23
2019-07-24 16:00:00 33.2 14 Sudeste 39 Sur 0 -- -- 23
2019-07-24 15:00:00 32.1 20 Sur 35 Sur 0 -- -- 25
2019-07-24 14:00:00 30.7 19 Sudeste 30 Sudeste 0 -- -- 28
2019-07-24 13:00:00 29.8 14 Sudeste 24 Sur 0 -- -- 29
2019-07-24 12:00:00 28.6 15 Sudeste 26 Sur 0 -- -- 32
2019-07-24 11:00:00 26.2 6 Sur 19 Sur 0 -- -- 40
2019-07-24 10:00:00 22.1 0 Calma 5 Este 0 -- -- 59
2019-07-24 09:00:00 17 2 Sudeste 4 Sudeste 0 -- -- 75
2019-07-24 08:00:00 14.6 0 Calma 5 Sudeste 0 -- -- 79
2019-07-24 07:00:00 13.9 2 Sudoeste 6 Sudoeste 0 -- -- 79
2019-07-24 06:00:00 14.2 0 Calma -- -- 0 -- -- 77
2019-07-24 05:00:00 15 0 Calma 8 Oeste 0 -- -- 74
2019-07-24 04:00:00 16.3 3 Sudoeste 7 Sudoeste 0 -- -- 71
2019-07-24 03:00:00 17.7 2 Sudoeste 8 Sudoeste 0 -- -- 64
2019-07-24 02:00:00 20.1 5 Sur 9 Sur 0 -- -- 61
2019-07-24 01:00:00 21 4 Noroeste 11 Sur 0 -- -- 57
2019-07-24 00:00:00 22 4 Sur 30 Sudoeste 0 -- -- 50
2019-07-23 23:00:00 19.7 4 Sudoeste 10 Sudeste 0 -- -- 72
2019-07-23 22:00:00 20.4 4 Sur 10 Sur 0 -- -- 72
2019-07-23 21:00:00 22.6 5 Sur 24 Noroeste 0 -- -- 63
2019-07-23 20:00:00 23.5 14 Sudeste 37 Sur 1.2 -- -- 51
2019-07-23 19:00:00 32.4 11 Sur 23 Sudeste 0 -- -- 23
2019-07-23 18:00:00 33.9 12 Sur 28 Sudoeste 0 -- -- 22
2019-07-23 17:00:00 33.6 8 Sur 22 Sudoeste 0 -- -- 23
2019-07-23 16:00:00 33 11 Sur 33 Sur 0 -- -- 24
2019-07-23 15:00:00 32.4 15 Sur 43 Sur 0 -- -- 24
2019-07-23 14:00:00 31.5 12 Sudeste 32 Sur 0 -- -- 27
2019-07-23 13:00:00 29.2 5 Sur 20 Sudoeste 0 -- -- 30
2019-07-23 12:00:00 28.2 10 Sur 21 Sur 0 -- -- 31
2019-07-23 11:00:00 26.8 13 Sur 26 Sudoeste 0 -- -- 32
2019-07-23 10:00:00 25.8 7 Sudoeste 20 Sur 0 -- -- 33
2019-07-23 09:00:00 23.1 10 Sudeste 18 Sur 0 -- -- 40
2019-07-23 08:00:00 17.5 0 Calma 5 Sudeste 0 -- -- 60
2019-07-23 07:00:00 15.8 2 Norte 6 Sudeste 0 -- -- 62
2019-07-23 06:00:00 15 3 Este 10 Este 0 -- -- 68
2019-07-23 05:00:00 15.1 2 Noroeste 9 Sudeste 0 -- -- 68
2019-07-23 04:00:00 15.7 0 Calma 8 Oeste 0 -- -- 68
2019-07-23 03:00:00 16.5 0 Calma 8 Sudeste 0 -- -- 65
2019-07-23 02:00:00 17.6 0 Calma 8 Oeste 0 -- -- 63
2019-07-23 01:00:00 19 0 Calma 6 Sudoeste 0 -- -- 58
2019-07-23 00:00:00 21.6 0 Calma 9 Sudeste 0 -- -- 49
2019-07-22 23:00:00 25.4 9 Oeste 35 Este 0 -- -- 36
2019-07-22 22:00:00 28.2 20 Este 31 Este 0 -- -- 28
2019-07-22 21:00:00 29.6 14 Este 31 Este 0 -- -- 28
2019-07-22 20:00:00 31.4 19 Este 33 Este 0 -- -- 26
2019-07-22 19:00:00 31.6 16 Nordeste 31 Nordeste 0 -- -- 28
2019-07-22 18:00:00 31.8 20 Nordeste 34 Nordeste 0 -- -- 28
2019-07-22 17:00:00 32.9 10 Sudeste 28 Este 0 -- -- 25
2019-07-22 16:00:00 31.5 12 Nordeste 33 Sudeste 0 -- -- 30
2019-07-22 15:00:00 30.9 13 Sudeste 26 Sudeste 0 -- -- 34
2019-07-22 14:00:00 30.3 10 Sudeste 23 Sudeste 0 -- -- 35
2019-07-22 13:00:00 29.5 9 Sudeste 23 Sudeste 0 -- -- 33
2019-07-22 12:00:00 28.1 14 Sudeste 23 Este 0 -- -- 39
2019-07-22 11:00:00 25.2 5 Norte 9 Norte 0 -- -- 46
2019-07-22 10:00:00 21.8 0 Calma -- -- 0 -- -- 66
2019-07-22 09:00:00 17.4 0 Calma 6 Sudeste 0 -- -- 83
2019-07-22 08:00:00 15.1 0 Calma -- -- 0 -- -- 87
2019-07-22 07:00:00 14.8 0 Calma -- -- 0 -- -- 87
2019-07-22 06:00:00 15.3 0 Calma 4 Sudeste 0 -- -- 87
2019-07-22 05:00:00 15.5 0 Calma 8 Sur 0 -- -- 87
2019-07-22 04:00:00 16 0 Calma 5 Este 0 -- -- 86
2019-07-22 03:00:00 16.5 2 Sudoeste 7 Sur 0 -- -- 85
2019-07-22 02:00:00 16.9 2 Sur 8 Noroeste 0 -- -- 85
2019-07-22 01:00:00 17.1 0 Calma 10 Sur 0 -- -- 84
2019-07-22 00:00:00 17.2 3 Oeste 13 Oeste 0.4 -- -- 81
2019-07-21 23:00:00 16.8 5 Sudoeste 20 Sudoeste 0 -- -- 78
2019-07-21 22:00:00 19.3 6 Nordeste 51 Noroeste 3.4 -- -- 67
2019-07-21 21:00:00 22.6 23 Oeste 59 Oeste 0 -- -- 51
2019-07-21 20:00:00 25.9 7 Norte 21 Nordeste 0 -- -- 49
2019-07-21 19:00:00 28.7 10 Nordeste 27 Nordeste 0 -- -- 41
2019-07-21 18:00:00 28.7 16 Nordeste 27 Nordeste 0 -- -- 42
2019-07-21 17:00:00 29.1 12 Nordeste 27 Nordeste 0 -- -- 44
2019-07-21 16:00:00 29.1 11 Nordeste 27 Este 0 -- -- 46
2019-07-21 15:00:00 28 12 Nordeste 24 Norte 0 -- -- 48
2019-07-21 14:00:00 27.3 13 Nordeste 22 Norte 0 -- -- 49
2019-07-21 13:00:00 27.6 8 Sudeste 23 Sudeste 0 -- -- 46
2019-07-21 12:00:00 26.1 11 Sudeste 23 Sudeste 0 -- -- 48
2019-07-21 11:00:00 24 9 Este 18 Este 0 -- -- 55
2019-07-21 10:00:00 20.8 6 Sudeste 11 Este 0 -- -- 67
2019-07-21 09:00:00 17.9 0 Calma -- -- 0 -- -- 80
2019-07-21 08:00:00 16.5 0 Calma 8 Sudoeste 0 -- -- 86
2019-07-21 07:00:00 16.7 3 Sudoeste 7 Sur 0 -- -- 85
2019-07-21 06:00:00 16.8 2 Oeste 5 Sudoeste 0 -- -- 85
2019-07-21 05:00:00 16.6 2 Sur 5 Sur 0 -- -- 84
2019-07-21 04:00:00 16.6 0 Calma 8 Nordeste 0 -- -- 83
2019-07-21 03:00:00 16.8 6 Nordeste 17 Norte 0 -- -- 82
2019-07-21 02:00:00 17.6 0 Calma 5 Nordeste 0 -- -- 79
2019-07-21 01:00:00 18.8 3 Nordeste 10 Nordeste 0 -- -- 76
2019-07-21 00:00:00 20.1 6 Norte 16 Norte 0 -- -- 72
2019-07-20 23:00:00 21.4 8 Norte 13 Norte 0 -- -- 68
2019-07-20 22:00:00 22.6 3 Noroeste 17 Nordeste 0 -- -- 67
2019-07-20 21:00:00 24.4 10 Nordeste 20 Nordeste 0 -- -- 59
2019-07-20 20:00:00 26.5 10 Nordeste 20 Norte 0 -- -- 51
2019-07-20 19:00:00 27 6 Norte 20 Nordeste 0 -- -- 48
2019-07-20 18:00:00 26.7 12 Nordeste 27 Norte 0 -- -- 49
2019-07-20 17:00:00 27.5 18 Nordeste 30 Norte 0 -- -- 47
2019-07-20 16:00:00 28.1 15 Nordeste 26 Oeste 0 -- -- 47
2019-07-20 15:00:00 31 10 Sudoeste 24 Oeste 0 -- -- 31
2019-07-20 14:00:00 30.2 13 Sur 32 Sudeste 0 -- -- 32
2019-07-20 13:00:00 28.6 8 Sur 22 Sur 0 -- -- 35
2019-07-20 12:00:00 27.1 8 Sur 24 Sudeste 0 -- -- 37
2019-07-20 11:00:00 25.2 15 Sur 29 Sudoeste 0 -- -- 41
2019-07-20 10:00:00 24 5 Sur 17 Sur 0 -- -- 45
2019-07-20 09:00:00 20.8 4 Sur 13 Sur 0 -- -- 51
2019-07-20 08:00:00 14.4 0 Calma 8 Oeste 0 -- -- 82
2019-07-20 07:00:00 13.2 0 Calma 5 Sudeste 0 -- -- 84
2019-07-20 06:00:00 13.9 0 Calma 6 Sur 0 -- -- 83
2019-07-20 05:00:00 14.7 2 Sur 6 Sudeste 0 -- -- 82
2019-07-20 04:00:00 15.5 0 Calma 8 Sur 0 -- -- 81
2019-07-20 03:00:00 16.5 2 Sudoeste 6 Oeste 0 -- -- 78
2019-07-20 02:00:00 17.3 2 Sudeste 11 Sur 0 -- -- 78
2019-07-20 01:00:00 18 0 Calma 10 Sur 0 -- -- 76
2019-07-20 00:00:00 19.6 3 Sudoeste 21 Oeste 0 -- -- 69
2019-07-19 23:00:00 21.6 10 Sudeste 34 Sudoeste 0.2 -- -- 59
2019-07-19 22:00:00 24.3 3 Sudeste 12 Nordeste 0 -- -- 45
2019-07-19 21:00:00 25.7 6 Nordeste 17 Nordeste 0 -- -- 40
2019-07-19 20:00:00 26.9 8 Nordeste 21 Este 0 -- -- 39
2019-07-19 19:00:00 27.2 12 Este 29 Nordeste 0 -- -- 39
2019-07-19 18:00:00 27.1 11 Nordeste 22 Nordeste 0 -- -- 37
2019-07-19 17:00:00 27.1 14 Nordeste 27 Nordeste 0 -- -- 36
2019-07-19 16:00:00 28.7 9 Nordeste 24 Nordeste 0 -- -- 37
2019-07-19 15:00:00 29.1 8 Sudeste 26 Sudeste 0 -- -- 36
2019-07-19 14:00:00 28.1 13 Sudeste 26 Sudeste 0 -- -- 38
2019-07-19 13:00:00 27.2 10 Sudeste 24 Este 0 -- -- 39
2019-07-19 12:00:00 25.9 11 Sudeste 21 Sudeste 0 -- -- 39
2019-07-19 11:00:00 24.4 10 Sudeste 18 Este 0 -- -- 40
2019-07-19 10:00:00 19.3 0 Calma 2 Sudeste 0 -- -- 57
2019-07-19 09:00:00 13.8 0 Calma 5 Este 0 -- -- 77
2019-07-19 08:00:00 10.3 0 Calma 5 Sur 0 -- -- 82
2019-07-19 07:00:00 9 0 Calma -- -- 0 -- -- 85
2019-07-19 06:00:00 9.2 0 Calma 4 Sudoeste 0 -- -- 84
2019-07-19 05:00:00 9.9 0 Calma 3 Sudoeste 0 -- -- 83
2019-07-19 04:00:00 10.6 3 Sur 6 Sur 0 -- -- 82
2019-07-19 03:00:00 11.3 0 Calma 5 Sur 0 -- -- 81
2019-07-19 02:00:00 12.2 0 Calma 5 Sudoeste 0 -- -- 78
2019-07-19 01:00:00 13.6 0 Calma 4 Sudoeste 0 -- -- 74
2019-07-19 00:00:00 14.8 3 Sudeste 9 Sur 0 -- -- 70